Terminal Aerodrome Forecast
Issued by NWS

Home | Current Version | Previous Version | Text Only | Print | Product List | Glossary On
Versions: 1 2 3 4 5 6 7 8 9 10 11 12 13 14 15
000
FTUS43 KLSX 260520
TAFCPS
TAF
KCPS 260520Z 2606/2706 35010KT P6SM VCTS BKN040CB BKN120
     FM260700 VRB03KT P6SM SCT040 BKN250
     FM261200 VRB04KT P6SM BKN035
     FM261900 11006KT P6SM VCTS BKN040CB
     FM270100 VRB03KT P6SM SCT050 BKN120=

USA.gov is the U.S. government's official web portal to all federal, state and local government web resources and services.